メインページ
METAR-TAF:

METAR-TAF

空港 :

オタワ・マクドナルド・カルティエ国際空港

オタワ, オンタリオ州, カナダ

緯度: 45-19N, 経度: 075-40W, 海抜: 116m

現時点の気象観測

当レポートは41分前の09:00(UTC)に作成
西の風 6kt
気温 14°C
湿度 94%
気圧 1009 hPa
視程: 16.1km
高度600ftの曇り
小雨

METAR: CYOW 200900Z 27006KT 10SM -RA OVC006 14/13 A2980 RMK SF8 SLP093 DENSITY ALT 500FT

時間: 05:41 (09:41 UTC)

予報

当レポートは1時間3分前の08:38(UTC)に作成
予報は20日の 09時(UTC)から 21日の 06時(UTC)まで有効
変向風 3kt
視程: 10km
高度1500ftの曇り
弱いにわか雨
20日の 09時(UTC)から 20日の 11時(UTC)まで一時的に
視程: 8.0km
高度900ftの曇り
弱いにわか雨, 靄
20日の 09時(UTC)から 20日の 10時(UTC)まで徐々に
北西の風 10kt
20日の 1100時(UTC)から
北/北西の風 15kt、最大25ktの突風を伴う
視程: 10km
高度1500ftの千切れ雲あり
高度8000ftの曇り
20日の 11時(UTC)から 20日の 16時(UTC)まで一時的に
高度1500ftの雲は散在している
高度8000ftの千切れ雲あり
20日の 1600時(UTC)から
北/北西の風 15kt
視程: 10km
高度3000ftの雲はほとんどない
20日の 18時(UTC)から 20日の 20時(UTC)まで徐々に
北西の風 8kt
21日の 00時(UTC)から 21日の 02時(UTC)まで徐々に
西の風 7kt

TAF: CYOW 200838Z 2009/2106 VRB03KT P6SM -SHRA OVC015 TEMPO 2009/2011 5SM -SHRA BR OVC009 BECMG 2009/2010 31010KT FM201100 34015G25KT P6SM BKN015 OVC080 TEMPO 2011/2016 SCT015 BKN080 FM201600 34015KT P6SM FEW030 BECMG 2018/2020 32008KT BECMG 2100/2102 27007KT RMK NXT FCST BY 201200Z

4,000以上の空港の気象観測と天気予報(METAR報とTAF報)

利用可能な観測所は地図上に黄色い丸と赤い丸で示す。

丸の上にカーソルを重ねると観測所名を参照できる。

次にクリックすると気象観測と天気予報を参照できる。

マップの切り替え:黒色「×」印の緑ボタンをクリックして拡大、「-」印の緑ボタンをクリックして縮小、緑色の三角印をクリックして隣りの地図に切り替え


METAR-TAF: